sensor_id;sensor_type;location;lat;lon;timestamp;temperature;humidity
14172;DHT22;7165;52.388;4.928;2023-04-01T00:02:22;10.30;99.90
14172;DHT22;7165;52.388;4.928;2023-04-01T00:04:49;10.20;99.90
14172;DHT22;7165;52.388;4.928;2023-04-01T00:07:16;10.20;99.90
14172;DHT22;7165;52.388;4.928;2023-04-01T00:09:42;10.20;99.90
14172;DHT22;7165;52.388;4.928;2023-04-01T00:12:09;10.20;99.90
14172;DHT22;7165;52.388;4.928;2023-04-01T00:14:37;10.20;99.90
14172;DHT22;7165;52.388;4.928;2023-04-01T00:17:05;10.20;99.90
14172;DHT22;7165;52.388;4.928;2023-04-01T00:19:31;10.30;99.90
14172;DHT22;7165;52.388;4.928;2023-04-01T00:21:58;10.30;99.90
14172;DHT22;7165;52.388;4.928;2023-04-01T00:24:25;10.30;99.90
14172;DHT22;7165;52.388;4.928;2023-04-01T00:26:52;10.30;99.90
14172;DHT22;7165;52.388;4.928;2023-04-01T00:29:18;10.20;99.90
14172;DHT22;7165;52.388;4.928;2023-04-01T00:31:46;10.20;99.90
14172;DHT22;7165;52.388;4.928;2023-04-01T00:34:14;10.20;99.90
14172;DHT22;7165;52.388;4.928;2023-04-01T00:36:41;10.20;99.90
14172;DHT22;7165;52.388;4.928;2023-04-01T00:39:07;10.20;99.90
14172;DHT22;7165;52.388;4.928;2023-04-01T00:41:34;10.10;99.90
14172;DHT22;7165;52.388;4.928;2023-04-01T00:44:20;10.10;99.90
14172;DHT22;7165;52.388;4.928;2023-04-01T00:46:48;10.10;99.90
14172;DHT22;7165;52.388;4.928;2023-04-01T00:49:18;10.10;99.90
14172;DHT22;7165;52.388;4.928;2023-04-01T00:51:49;10.10;99.90
14172;DHT22;7165;52.388;4.928;2023-04-01T00:54:16;10.10;99.90
14172;DHT22;7165;52.388;4.928;2023-04-01T00:56:48;10.00;99.90
14172;DHT22;7165;52.388;4.928;2023-04-01T00:59:19;10.00;99.90
14172;DHT22;7165;52.388;4.928;2023-04-01T01:01:48;10.00;99.90
14172;DHT22;7165;52.388;4.928;2023-04-01T01:04:23;9.90;99.90
14172;DHT22;7165;52.388;4.928;2023-04-01T01:06:58;9.90;99.90
14172;DHT22;7165;52.388;4.928;2023-04-01T01:09:32;9.90;99.90
14172;DHT22;7165;52.388;4.928;2023-04-01T01:12:07;9.90;99.90
14172;DHT22;7165;52.388;4.928;2023-04-01T01:14:49;9.90;99.90
14172;DHT22;7165;52.388;4.928;2023-04-01T01:17:26;9.90;99.90
14172;DHT22;7165;52.388;4.928;2023-04-01T01:20:14;9.80;99.90
14172;DHT22;7165;52.388;4.928;2023-04-01T01:22:53;9.80;99.90
14172;DHT22;7165;52.388;4.928;2023-04-01T01:25:32;9.80;99.90
14172;DHT22;7165;52.388;4.928;2023-04-01T01:28:15;9.80;99.90
14172;DHT22;7165;52.388;4.928;2023-04-01T01:30:49;9.90;99.90
14172;DHT22;7165;52.388;4.928;2023-04-01T01:33:48;9.80;99.90
14172;DHT22;7165;52.388;4.928;2023-04-01T01:36:20;9.90;99.90
14172;DHT22;7165;52.388;4.928;2023-04-01T01:38:48;9.90;99.90
14172;DHT22;7165;52.388;4.928;2023-04-01T01:41:17;9.90;99.90
14172;DHT22;7165;52.388;4.928;2023-04-01T01:43:48;9.90;99.90
14172;DHT22;7165;52.388;4.928;2023-04-01T01:46:20;9.90;99.90
14172;DHT22;7165;52.388;4.928;2023-04-01T01:48:49;9.90;99.90
14172;DHT22;7165;52.388;4.928;2023-04-01T01:51:19;9.90;99.90
14172;DHT22;7165;52.388;4.928;2023-04-01T01:53:46;9.90;99.90
14172;DHT22;7165;52.388;4.928;2023-04-01T01:56:13;9.90;99.90
14172;DHT22;7165;52.388;4.928;2023-04-01T01:58:43;9.90;99.90
14172;DHT22;7165;52.388;4.928;2023-04-01T02:01:14;9.90;99.90
14172;DHT22;7165;52.388;4.928;2023-04-01T02:03:42;9.90;99.90
14172;DHT22;7165;52.388;4.928;2023-04-01T02:06:12;9.90;99.90
14172;DHT22;7165;52.388;4.928;2023-04-01T02:08:44;9.90;99.90
14172;DHT22;7165;52.388;4.928;2023-04-01T02:11:14;9.90;99.90
14172;DHT22;7165;52.388;4.928;2023-04-01T02:13:49;9.90;99.90
14172;DHT22;7165;52.388;4.928;2023-04-01T02:16:20;9.90;99.90
14172;DHT22;7165;52.388;4.928;2023-04-01T02:18:50;9.90;99.90
14172;DHT22;7165;52.388;4.928;2023-04-01T02:21:20;9.90;99.90
14172;DHT22;7165;52.388;4.928;2023-04-01T02:23:51;10.00;99.90
14172;DHT22;7165;52.388;4.928;2023-04-01T02:26:19;9.90;99.90
14172;DHT22;7165;52.388;4.928;2023-04-01T02:28:49;9.90;99.90
14172;DHT22;7165;52.388;4.928;2023-04-01T02:31:17;9.90;99.90
14172;DHT22;7165;52.388;4.928;2023-04-01T02:33:44;10.00;99.90
14172;DHT22;7165;52.388;4.928;2023-04-01T02:36:12;10.00;99.90
14172;DHT22;7165;52.388;4.928;2023-04-01T02:38:41;10.00;99.90
14172;DHT22;7165;52.388;4.928;2023-04-01T02:41:09;10.00;99.90
14172;DHT22;7165;52.388;4.928;2023-04-01T02:43:36;10.00;99.90
14172;DHT22;7165;52.388;4.928;2023-04-01T02:46:02;10.00;99.90
14172;DHT22;7165;52.388;4.928;2023-04-01T02:48:29;10.10;99.90
14172;DHT22;7165;52.388;4.928;2023-04-01T02:50:56;10.10;99.90
14172;DHT22;7165;52.388;4.928;2023-04-01T02:53:23;10.10;99.90
14172;DHT22;7165;52.388;4.928;2023-04-01T02:55:50;10.10;99.90
14172;DHT22;7165;52.388;4.928;2023-04-01T02:58:19;10.20;99.90
14172;DHT22;7165;52.388;4.928;2023-04-01T03:00:45;10.20;99.90
14172;DHT22;7165;52.388;4.928;2023-04-01T03:03:12;10.20;99.90
14172;DHT22;7165;52.388;4.928;2023-04-01T03:05:39;10.30;99.90
14172;DHT22;7165;52.388;4.928;2023-04-01T03:08:06;10.30;99.90
14172;DHT22;7165;52.388;4.928;2023-04-01T03:10:32;10.30;99.90
14172;DHT22;7165;52.388;4.928;2023-04-01T03:12:59;10.30;99.90
14172;DHT22;7165;52.388;4.928;2023-04-01T03:15:27;10.30;99.90
14172;DHT22;7165;52.388;4.928;2023-04-01T03:17:54;10.40;99.90
14172;DHT22;7165;52.388;4.928;2023-04-01T03:20:20;10.40;99.90
14172;DHT22;7165;52.388;4.928;2023-04-01T03:22:47;10.40;99.90
14172;DHT22;7165;52.388;4.928;2023-04-01T03:25:14;10.40;99.90
14172;DHT22;7165;52.388;4.928;2023-04-01T03:27:40;10.40;99.90
14172;DHT22;7165;52.388;4.928;2023-04-01T03:30:08;10.40;99.90
14172;DHT22;7165;52.388;4.928;2023-04-01T03:32:36;10.40;99.90
14172;DHT22;7165;52.388;4.928;2023-04-01T03:35:03;10.40;99.90
14172;DHT22;7165;52.388;4.928;2023-04-01T03:37:30;10.40;99.90
14172;DHT22;7165;52.388;4.928;2023-04-01T03:39:57;10.40;99.90
14172;DHT22;7165;52.388;4.928;2023-04-01T03:42:24;10.40;99.90
14172;DHT22;7165;52.388;4.928;2023-04-01T03:44:50;10.50;99.90
14172;DHT22;7165;52.388;4.928;2023-04-01T03:47:17;10.40;99.90
14172;DHT22;7165;52.388;4.928;2023-04-01T03:49:45;10.40;99.90
14172;DHT22;7165;52.388;4.928;2023-04-01T03:52:12;10.40;99.90
14172;DHT22;7165;52.388;4.928;2023-04-01T03:54:39;10.40;99.90
14172;DHT22;7165;52.388;4.928;2023-04-01T03:57:05;10.40;99.90
14172;DHT22;7165;52.388;4.928;2023-04-01T03:59:32;10.40;99.90
14172;DHT22;7165;52.388;4.928;2023-04-01T04:01:59;10.40;99.90
14172;DHT22;7165;52.388;4.928;2023-04-01T04:04:26;10.40;99.90
14172;DHT22;7165;52.388;4.928;2023-04-01T04:06:54;10.40;99.90
14172;DHT22;7165;52.388;4.928;2023-04-01T04:09:21;10.40;99.90
14172;DHT22;7165;52.388;4.928;2023-04-01T04:11:48;10.40;99.90
14172;DHT22;7165;52.388;4.928;2023-04-01T04:14:15;10.40;99.90
14172;DHT22;7165;52.388;4.928;2023-04-01T04:16:42;10.40;99.90
14172;DHT22;7165;52.388;4.928;2023-04-01T04:19:08;10.40;99.90
14172;DHT22;7165;52.388;4.928;2023-04-01T04:21:35;10.40;99.90
14172;DHT22;7165;52.388;4.928;2023-04-01T04:24:04;10.40;99.90
14172;DHT22;7165;52.388;4.928;2023-04-01T04:26:30;10.40;99.90
14172;DHT22;7165;52.388;4.928;2023-04-01T04:28:57;10.40;99.90
14172;DHT22;7165;52.388;4.928;2023-04-01T04:31:25;10.40;99.90
14172;DHT22;7165;52.388;4.928;2023-04-01T04:33:52;10.40;99.90
14172;DHT22;7165;52.388;4.928;2023-04-01T04:36:19;10.30;99.90
14172;DHT22;7165;52.388;4.928;2023-04-01T04:38:46;10.30;99.90
14172;DHT22;7165;52.388;4.928;2023-04-01T04:41:16;10.30;99.90
14172;DHT22;7165;52.388;4.928;2023-04-01T04:43:49;10.30;99.90
14172;DHT22;7165;52.388;4.928;2023-04-01T04:46:15;10.30;99.90
14172;DHT22;7165;52.388;4.928;2023-04-01T04:48:42;10.30;99.90
14172;DHT22;7165;52.388;4.928;2023-04-01T04:51:13;10.30;99.90
14172;DHT22;7165;52.388;4.928;2023-04-01T04:53:39;10.30;99.90
14172;DHT22;7165;52.388;4.928;2023-04-01T04:56:06;10.30;99.90
14172;DHT22;7165;52.388;4.928;2023-04-01T04:58:34;10.30;99.90
14172;DHT22;7165;52.388;4.928;2023-04-01T05:01:06;10.30;99.90
14172;DHT22;7165;52.388;4.928;2023-04-01T05:03:32;10.30;99.90
14172;DHT22;7165;52.388;4.928;2023-04-01T05:05:59;10.30;99.90
14172;DHT22;7165;52.388;4.928;2023-04-01T05:08:25;10.30;99.90
14172;DHT22;7165;52.388;4.928;2023-04-01T05:10:52;10.30;99.90
14172;DHT22;7165;52.388;4.928;2023-04-01T05:13:19;10.30;99.90
14172;DHT22;7165;52.388;4.928;2023-04-01T05:15:47;10.30;99.90
14172;DHT22;7165;52.388;4.928;2023-04-01T05:18:13;10.30;99.90
14172;DHT22;7165;52.388;4.928;2023-04-01T05:20:46;10.30;99.90
14172;DHT22;7165;52.388;4.928;2023-04-01T05:23:13;10.30;99.90
14172;DHT22;7165;52.388;4.928;2023-04-01T05:25:39;10.30;99.90
14172;DHT22;7165;52.388;4.928;2023-04-01T05:28:06;10.30;99.90
14172;DHT22;7165;52.388;4.928;2023-04-01T05:30:33;10.30;99.90
14172;DHT22;7165;52.388;4.928;2023-04-01T05:33:01;10.30;99.90
14172;DHT22;7165;52.388;4.928;2023-04-01T05:35:27;10.30;99.90
14172;DHT22;7165;52.388;4.928;2023-04-01T05:37:54;10.30;99.90
14172;DHT22;7165;52.388;4.928;2023-04-01T05:40:21;10.30;99.90
14172;DHT22;7165;52.388;4.928;2023-04-01T05:42:47;10.30;99.90
14172;DHT22;7165;52.388;4.928;2023-04-01T05:45:14;10.30;99.90
14172;DHT22;7165;52.388;4.928;2023-04-01T05:47:41;10.30;99.90
14172;DHT22;7165;52.388;4.928;2023-04-01T05:50:10;10.30;99.90
14172;DHT22;7165;52.388;4.928;2023-04-01T05:52:37;10.30;99.90
14172;DHT22;7165;52.388;4.928;2023-04-01T05:55:04;10.30;99.90
14172;DHT22;7165;52.388;4.928;2023-04-01T05:57:31;10.20;99.90
14172;DHT22;7165;52.388;4.928;2023-04-01T05:59:58;10.20;99.90
14172;DHT22;7165;52.388;4.928;2023-04-01T06:02:25;10.20;99.90
14172;DHT22;7165;52.388;4.928;2023-04-01T06:04:58;10.20;99.90
14172;DHT22;7165;52.388;4.928;2023-04-01T06:07:29;10.20;99.90
14172;DHT22;7165;52.388;4.928;2023-04-01T06:09:55;10.20;99.90
14172;DHT22;7165;52.388;4.928;2023-04-01T06:12:38;10.20;99.90
14172;DHT22;7165;52.388;4.928;2023-04-01T06:15:17;10.10;99.90
14172;DHT22;7165;52.388;4.928;2023-04-01T06:17:57;10.20;99.90
14172;DHT22;7165;52.388;4.928;2023-04-01T06:20:33;10.20;99.90
14172;DHT22;7165;52.388;4.928;2023-04-01T06:26:03;10.20;99.90
14172;DHT22;7165;52.388;4.928;2023-04-01T06:28:57;10.20;99.90
14172;DHT22;7165;52.388;4.928;2023-04-01T06:31:42;10.20;99.90
14172;DHT22;7165;52.388;4.928;2023-04-01T06:34:35;10.10;99.90
14172;DHT22;7165;52.388;4.928;2023-04-01T06:37:25;10.20;99.90
14172;DHT22;7165;52.388;4.928;2023-04-01T06:40:15;10.20;99.90
14172;DHT22;7165;52.388;4.928;2023-04-01T06:42:53;10.20;99.90
14172;DHT22;7165;52.388;4.928;2023-04-01T06:45:31;10.20;99.90
14172;DHT22;7165;52.388;4.928;2023-04-01T06:48:11;10.20;99.90
14172;DHT22;7165;52.388;4.928;2023-04-01T06:50:44;10.20;99.90
14172;DHT22;7165;52.388;4.928;2023-04-01T06:53:19;10.20;99.90
14172;DHT22;7165;52.388;4.928;2023-04-01T06:55:52;10.20;99.90
14172;DHT22;7165;52.388;4.928;2023-04-01T06:58:21;10.20;99.90
14172;DHT22;7165;52.388;4.928;2023-04-01T07:00:51;10.20;99.90
14172;DHT22;7165;52.388;4.928;2023-04-01T07:03:21;10.30;99.90
14172;DHT22;7165;52.388;4.928;2023-04-01T07:05:49;10.30;99.90
14172;DHT22;7165;52.388;4.928;2023-04-01T07:08:19;10.30;99.90
14172;DHT22;7165;52.388;4.928;2023-04-01T07:10:51;10.30;99.90
14172;DHT22;7165;52.388;4.928;2023-04-01T07:13:23;10.30;99.90
14172;DHT22;7165;52.388;4.928;2023-04-01T07:15:58;10.30;99.90
14172;DHT22;7165;52.388;4.928;2023-04-01T07:18:34;10.30;99.90
14172;DHT22;7165;52.388;4.928;2023-04-01T07:21:03;10.30;99.90
14172;DHT22;7165;52.388;4.928;2023-04-01T07:23:33;10.30;99.90
14172;DHT22;7165;52.388;4.928;2023-04-01T07:26:11;10.40;99.90
14172;DHT22;7165;52.388;4.928;2023-04-01T07:28:40;10.40;99.90
14172;DHT22;7165;52.388;4.928;2023-04-01T07:31:18;10.40;99.90
14172;DHT22;7165;52.388;4.928;2023-04-01T07:33:53;10.50;99.90
14172;DHT22;7165;52.388;4.928;2023-04-01T07:36:26;10.50;99.90
14172;DHT22;7165;52.388;4.928;2023-04-01T07:39:01;10.50;99.90
14172;DHT22;7165;52.388;4.928;2023-04-01T07:41:40;10.50;99.90
14172;DHT22;7165;52.388;4.928;2023-04-01T07:44:13;10.60;99.90
14172;DHT22;7165;52.388;4.928;2023-04-01T07:46:55;10.60;99.90
14172;DHT22;7165;52.388;4.928;2023-04-01T07:49:30;10.60;99.90
14172;DHT22;7165;52.388;4.928;2023-04-01T07:52:03;10.60;99.90
14172;DHT22;7165;52.388;4.928;2023-04-01T07:54:37;10.60;99.90
14172;DHT22;7165;52.388;4.928;2023-04-01T07:57:11;10.70;99.90
14172;DHT22;7165;52.388;4.928;2023-04-01T07:59:47;10.70;99.90
14172;DHT22;7165;52.388;4.928;2023-04-01T08:02:28;10.70;99.90
14172;DHT22;7165;52.388;4.928;2023-04-01T08:05:04;10.70;99.90
14172;DHT22;7165;52.388;4.928;2023-04-01T08:07:39;10.70;99.90
14172;DHT22;7165;52.388;4.928;2023-04-01T08:10:13;10.70;99.90
14172;DHT22;7165;52.388;4.928;2023-04-01T08:12:50;10.80;99.90
14172;DHT22;7165;52.388;4.928;2023-04-01T08:15:22;10.80;99.90
14172;DHT22;7165;52.388;4.928;2023-04-01T08:18:02;10.80;99.90
14172;DHT22;7165;52.388;4.928;2023-04-01T08:20:36;10.80;99.90
14172;DHT22;7165;52.388;4.928;2023-04-01T08:23:07;10.90;99.90
14172;DHT22;7165;52.388;4.928;2023-04-01T08:25:39;10.90;99.90
14172;DHT22;7165;52.388;4.928;2023-04-01T08:28:15;11.00;99.90
14172;DHT22;7165;52.388;4.928;2023-04-01T08:30:48;11.00;99.90
14172;DHT22;7165;52.388;4.928;2023-04-01T08:33:21;11.00;99.90
14172;DHT22;7165;52.388;4.928;2023-04-01T08:35:52;11.00;99.90
14172;DHT22;7165;52.388;4.928;2023-04-01T08:38:23;11.00;99.90
14172;DHT22;7165;52.388;4.928;2023-04-01T08:41:06;11.00;99.90
14172;DHT22;7165;52.388;4.928;2023-04-01T08:43:51;11.00;99.90
14172;DHT22;7165;52.388;4.928;2023-04-01T08:46:35;11.00;99.90
14172;DHT22;7165;52.388;4.928;2023-04-01T08:49:22;11.00;99.90
14172;DHT22;7165;52.388;4.928;2023-04-01T08:52:18;11.00;99.90
14172;DHT22;7165;52.388;4.928;2023-04-01T08:55:15;11.00;99.90
14172;DHT22;7165;52.388;4.928;2023-04-01T08:57:58;11.10;99.90
14172;DHT22;7165;52.388;4.928;2023-04-01T09:00:31;11.20;99.90
14172;DHT22;7165;52.388;4.928;2023-04-01T09:03:21;11.20;99.90
14172;DHT22;7165;52.388;4.928;2023-04-01T09:06:10;11.30;99.90
14172;DHT22;7165;52.388;4.928;2023-04-01T09:08:50;11.30;99.90
14172;DHT22;7165;52.388;4.928;2023-04-01T09:11:30;11.30;99.90
14172;DHT22;7165;52.388;4.928;2023-04-01T09:14:34;11.40;99.90
14172;DHT22;7165;52.388;4.928;2023-04-01T09:17:26;11.40;99.90
14172;DHT22;7165;52.388;4.928;2023-04-01T09:20:25;11.50;99.90
14172;DHT22;7165;52.388;4.928;2023-04-01T09:23:07;11.50;99.90
14172;DHT22;7165;52.388;4.928;2023-04-01T09:25:53;11.60;99.90
14172;DHT22;7165;52.388;4.928;2023-04-01T09:28:28;11.60;99.90
14172;DHT22;7165;52.388;4.928;2023-04-01T09:31:20;11.60;99.90
14172;DHT22;7165;52.388;4.928;2023-04-01T09:37:01;11.60;99.90
14172;DHT22;7165;52.388;4.928;2023-04-01T09:39:36;11.60;99.90
14172;DHT22;7165;52.388;4.928;2023-04-01T09:42:15;11.50;99.90
14172;DHT22;7165;52.388;4.928;2023-04-01T09:44:56;11.50;99.90
14172;DHT22;7165;52.388;4.928;2023-04-01T09:47:37;11.50;99.90
14172;DHT22;7165;52.388;4.928;2023-04-01T09:50:27;11.60;99.90
14172;DHT22;7165;52.388;4.928;2023-04-01T09:53:04;11.60;99.90
14172;DHT22;7165;52.388;4.928;2023-04-01T09:55:54;11.70;99.90
14172;DHT22;7165;52.388;4.928;2023-04-01T09:58:57;11.70;99.90
14172;DHT22;7165;52.388;4.928;2023-04-01T10:01:45;11.60;99.90
14172;DHT22;7165;52.388;4.928;2023-04-01T10:04:47;11.60;99.90
14172;DHT22;7165;52.388;4.928;2023-04-01T10:10:47;11.60;99.90
14172;DHT22;7165;52.388;4.928;2023-04-01T10:13:39;11.60;99.90
14172;DHT22;7165;52.388;4.928;2023-04-01T10:16:27;11.70;99.90
14172;DHT22;7165;52.388;4.928;2023-04-01T10:19:39;11.80;99.90
14172;DHT22;7165;52.388;4.928;2023-04-01T10:22:18;11.90;99.90
14172;DHT22;7165;52.388;4.928;2023-04-01T10:25:18;12.00;99.90
14172;DHT22;7165;52.388;4.928;2023-04-01T10:28:01;12.10;99.90
14172;DHT22;7165;52.388;4.928;2023-04-01T10:31:03;12.10;99.90
14172;DHT22;7165;52.388;4.928;2023-04-01T10:36:46;12.20;99.90
14172;DHT22;7165;52.388;4.928;2023-04-01T10:39:37;12.30;99.90
14172;DHT22;7165;52.388;4.928;2023-04-01T10:46:03;12.30;99.90
14172;DHT22;7165;52.388;4.928;2023-04-01T10:48:52;12.30;99.90
14172;DHT22;7165;52.388;4.928;2023-04-01T10:54:46;12.30;99.90
14172;DHT22;7165;52.388;4.928;2023-04-01T10:57:34;12.40;99.90
14172;DHT22;7165;52.388;4.928;2023-04-01T11:00:36;12.50;99.90
14172;DHT22;7165;52.388;4.928;2023-04-01T11:04:01;12.50;99.90
14172;DHT22;7165;52.388;4.928;2023-04-01T11:10:24;12.50;99.90
14172;DHT22;7165;52.388;4.928;2023-04-01T11:16:09;12.60;99.90
14172;DHT22;7165;52.388;4.928;2023-04-01T11:19:14;12.70;99.90
14172;DHT22;7165;52.388;4.928;2023-04-01T11:22:00;12.80;99.90
14172;DHT22;7165;52.388;4.928;2023-04-01T11:27:50;12.90;99.90
14172;DHT22;7165;52.388;4.928;2023-04-01T11:30:39;12.80;99.90
14172;DHT22;7165;52.388;4.928;2023-04-01T11:33:14;12.80;99.90
14172;DHT22;7165;52.388;4.928;2023-04-01T11:35:57;12.90;99.90
14172;DHT22;7165;52.388;4.928;2023-04-01T11:38:38;13.00;99.90
14172;DHT22;7165;52.388;4.928;2023-04-01T11:41:19;13.10;99.90
14172;DHT22;7165;52.388;4.928;2023-04-01T11:43:57;13.10;99.90
14172;DHT22;7165;52.388;4.928;2023-04-01T11:46:31;13.20;99.90
14172;DHT22;7165;52.388;4.928;2023-04-01T11:49:07;13.10;99.90
14172;DHT22;7165;52.388;4.928;2023-04-01T11:51:55;13.10;99.90
14172;DHT22;7165;52.388;4.928;2023-04-01T11:54:56;13.20;99.90
14172;DHT22;7165;52.388;4.928;2023-04-01T11:57:43;13.20;99.90
14172;DHT22;7165;52.388;4.928;2023-04-01T12:00:14;13.30;99.90
14172;DHT22;7165;52.388;4.928;2023-04-01T12:02:47;13.40;99.90
14172;DHT22;7165;52.388;4.928;2023-04-01T12:05:21;13.60;99.90
14172;DHT22;7165;52.388;4.928;2023-04-01T12:07:57;13.60;99.90
14172;DHT22;7165;52.388;4.928;2023-04-01T12:10:32;13.70;99.90
14172;DHT22;7165;52.388;4.928;2023-04-01T12:13:02;13.60;99.90
14172;DHT22;7165;52.388;4.928;2023-04-01T12:15:34;13.60;99.90
14172;DHT22;7165;52.388;4.928;2023-04-01T12:18:05;13.60;99.90
14172;DHT22;7165;52.388;4.928;2023-04-01T12:20:36;13.50;99.90
14172;DHT22;7165;52.388;4.928;2023-04-01T12:23:09;13.50;99.90
14172;DHT22;7165;52.388;4.928;2023-04-01T12:25:54;13.40;99.90
14172;DHT22;7165;52.388;4.928;2023-04-01T12:28:24;13.40;99.90
14172;DHT22;7165;52.388;4.928;2023-04-01T12:31:02;13.30;99.90
14172;DHT22;7165;52.388;4.928;2023-04-01T12:33:35;13.30;99.90
14172;DHT22;7165;52.388;4.928;2023-04-01T12:36:13;13.30;99.90
14172;DHT22;7165;52.388;4.928;2023-04-01T12:38:47;13.40;99.90
14172;DHT22;7165;52.388;4.928;2023-04-01T12:41:19;13.50;99.90
14172;DHT22;7165;52.388;4.928;2023-04-01T12:46:36;13.50;99.90
14172;DHT22;7165;52.388;4.928;2023-04-01T12:49:15;13.40;99.90
14172;DHT22;7165;52.388;4.928;2023-04-01T12:51:49;13.30;99.90
14172;DHT22;7165;52.388;4.928;2023-04-01T12:57:19;13.30;99.90
14172;DHT22;7165;52.388;4.928;2023-04-01T12:59:58;13.20;99.90
14172;DHT22;7165;52.388;4.928;2023-04-01T13:02:30;13.20;99.90
14172;DHT22;7165;52.388;4.928;2023-04-01T13:07:48;13.00;99.90
14172;DHT22;7165;52.388;4.928;2023-04-01T13:10:21;13.10;99.90
14172;DHT22;7165;52.388;4.928;2023-04-01T13:13:00;13.00;99.90
14172;DHT22;7165;52.388;4.928;2023-04-01T13:15:37;13.00;99.90
14172;DHT22;7165;52.388;4.928;2023-04-01T13:18:16;13.00;99.90
14172;DHT22;7165;52.388;4.928;2023-04-01T13:20:47;12.90;99.90
14172;DHT22;7165;52.388;4.928;2023-04-01T13:23:28;12.90;99.90
14172;DHT22;7165;52.388;4.928;2023-04-01T13:26:00;12.70;99.90
14172;DHT22;7165;52.388;4.928;2023-04-01T13:28:32;12.60;99.90
14172;DHT22;7165;52.388;4.928;2023-04-01T13:31:02;12.60;99.90
14172;DHT22;7165;52.388;4.928;2023-04-01T13:33:32;12.50;99.90
14172;DHT22;7165;52.388;4.928;2023-04-01T13:36:08;12.50;99.90
14172;DHT22;7165;52.388;4.928;2023-04-01T13:38:46;12.30;99.90
14172;DHT22;7165;52.388;4.928;2023-04-01T13:41:18;12.30;99.90
14172;DHT22;7165;52.388;4.928;2023-04-01T13:43:49;12.30;99.90
14172;DHT22;7165;52.388;4.928;2023-04-01T13:46:22;12.20;99.90
14172;DHT22;7165;52.388;4.928;2023-04-01T13:48:54;12.20;99.90
14172;DHT22;7165;52.388;4.928;2023-04-01T13:51:33;12.20;99.90
14172;DHT22;7165;52.388;4.928;2023-04-01T13:54:20;12.10;99.90
14172;DHT22;7165;52.388;4.928;2023-04-01T13:56:50;12.10;99.90
14172;DHT22;7165;52.388;4.928;2023-04-01T13:59:31;12.10;99.90
14172;DHT22;7165;52.388;4.928;2023-04-01T14:02:07;12.00;99.90
14172;DHT22;7165;52.388;4.928;2023-04-01T14:04:46;12.00;99.90
14172;DHT22;7165;52.388;4.928;2023-04-01T14:07:16;11.90;99.90
14172;DHT22;7165;52.388;4.928;2023-04-01T14:09:48;11.90;99.90
14172;DHT22;7165;52.388;4.928;2023-04-01T14:12:19;11.80;99.90
14172;DHT22;7165;52.388;4.928;2023-04-01T14:14:55;11.80;99.90
14172;DHT22;7165;52.388;4.928;2023-04-01T14:17:31;11.80;99.90
14172;DHT22;7165;52.388;4.928;2023-04-01T14:20:08;11.80;99.90
14172;DHT22;7165;52.388;4.928;2023-04-01T14:22:42;11.70;99.90
14172;DHT22;7165;52.388;4.928;2023-04-01T14:25:17;11.70;99.90
14172;DHT22;7165;52.388;4.928;2023-04-01T14:27:50;11.70;99.90
14172;DHT22;7165;52.388;4.928;2023-04-01T14:30:29;11.70;99.90
14172;DHT22;7165;52.388;4.928;2023-04-01T14:33:01;11.70;99.90
14172;DHT22;7165;52.388;4.928;2023-04-01T14:35:37;11.70;99.90
14172;DHT22;7165;52.388;4.928;2023-04-01T14:38:24;11.70;99.90
14172;DHT22;7165;52.388;4.928;2023-04-01T14:40:54;11.70;99.90
14172;DHT22;7165;52.388;4.928;2023-04-01T14:43:26;11.70;99.90
14172;DHT22;7165;52.388;4.928;2023-04-01T14:46:09;11.60;99.90
14172;DHT22;7165;52.388;4.928;2023-04-01T14:48:49;11.60;99.90
14172;DHT22;7165;52.388;4.928;2023-04-01T14:51:18;11.60;99.90
14172;DHT22;7165;52.388;4.928;2023-04-01T14:53:56;11.60;99.90
14172;DHT22;7165;52.388;4.928;2023-04-01T14:56:40;11.60;99.90
14172;DHT22;7165;52.388;4.928;2023-04-01T14:59:10;11.50;99.90
14172;DHT22;7165;52.388;4.928;2023-04-01T15:01:46;11.40;99.90
14172;DHT22;7165;52.388;4.928;2023-04-01T15:04:28;11.40;99.90
14172;DHT22;7165;52.388;4.928;2023-04-01T15:07:18;11.40;99.90
14172;DHT22;7165;52.388;4.928;2023-04-01T15:09:52;11.30;99.90
14172;DHT22;7165;52.388;4.928;2023-04-01T15:12:28;11.40;99.90
14172;DHT22;7165;52.388;4.928;2023-04-01T15:15:15;11.30;99.90
14172;DHT22;7165;52.388;4.928;2023-04-01T15:18:00;11.30;99.90
14172;DHT22;7165;52.388;4.928;2023-04-01T15:20:46;11.30;99.90
14172;DHT22;7165;52.388;4.928;2023-04-01T15:23:27;11.30;99.90
14172;DHT22;7165;52.388;4.928;2023-04-01T15:29:19;11.20;99.90
14172;DHT22;7165;52.388;4.928;2023-04-01T15:31:52;11.20;99.90
14172;DHT22;7165;52.388;4.928;2023-04-01T15:34:33;11.20;99.90
14172;DHT22;7165;52.388;4.928;2023-04-01T15:37:06;11.20;99.90
14172;DHT22;7165;52.388;4.928;2023-04-01T15:39:49;11.10;99.90
14172;DHT22;7165;52.388;4.928;2023-04-01T15:42:32;11.10;99.90
14172;DHT22;7165;52.388;4.928;2023-04-01T15:45:16;11.10;99.90
14172;DHT22;7165;52.388;4.928;2023-04-01T15:47:51;11.00;99.90
14172;DHT22;7165;52.388;4.928;2023-04-01T15:50:46;11.00;99.90
14172;DHT22;7165;52.388;4.928;2023-04-01T15:56:23;11.10;99.90
14172;DHT22;7165;52.388;4.928;2023-04-01T15:59:01;11.00;99.90
14172;DHT22;7165;52.388;4.928;2023-04-01T16:01:38;11.00;99.90
14172;DHT22;7165;52.388;4.928;2023-04-01T16:04:22;11.00;99.90
14172;DHT22;7165;52.388;4.928;2023-04-01T16:07:03;11.10;99.90
14172;DHT22;7165;52.388;4.928;2023-04-01T16:09:59;11.00;99.90
14172;DHT22;7165;52.388;4.928;2023-04-01T16:12:41;11.00;99.90
14172;DHT22;7165;52.388;4.928;2023-04-01T16:15:19;11.00;99.90
14172;DHT22;7165;52.388;4.928;2023-04-01T16:18:08;11.00;99.90
14172;DHT22;7165;52.388;4.928;2023-04-01T16:20:46;11.00;99.90
14172;DHT22;7165;52.388;4.928;2023-04-01T16:23:22;11.00;99.90
14172;DHT22;7165;52.388;4.928;2023-04-01T16:25:54;11.00;99.90
14172;DHT22;7165;52.388;4.928;2023-04-01T16:28:27;10.90;99.90
14172;DHT22;7165;52.388;4.928;2023-04-01T16:30:59;10.90;99.90
14172;DHT22;7165;52.388;4.928;2023-04-01T16:33:35;10.80;99.90
14172;DHT22;7165;52.388;4.928;2023-04-01T16:36:10;10.80;99.90
14172;DHT22;7165;52.388;4.928;2023-04-01T16:38:43;10.80;99.90
14172;DHT22;7165;52.388;4.928;2023-04-01T16:41:17;10.80;99.90
14172;DHT22;7165;52.388;4.928;2023-04-01T16:43:46;10.70;99.90
14172;DHT22;7165;52.388;4.928;2023-04-01T16:46:33;10.70;99.90
14172;DHT22;7165;52.388;4.928;2023-04-01T16:49:27;10.60;99.90
14172;DHT22;7165;52.388;4.928;2023-04-01T16:52:13;10.60;99.90
14172;DHT22;7165;52.388;4.928;2023-04-01T16:54:45;10.60;99.90
14172;DHT22;7165;52.388;4.928;2023-04-01T16:57:20;10.50;99.90
14172;DHT22;7165;52.388;4.928;2023-04-01T16:59:55;10.40;99.90
14172;DHT22;7165;52.388;4.928;2023-04-01T17:02:27;10.30;99.90
14172;DHT22;7165;52.388;4.928;2023-04-01T17:05:00;10.30;99.90
14172;DHT22;7165;52.388;4.928;2023-04-01T17:07:35;10.20;99.90
14172;DHT22;7165;52.388;4.928;2023-04-01T17:10:27;10.20;99.90
14172;DHT22;7165;52.388;4.928;2023-04-01T17:13:10;10.10;99.90
14172;DHT22;7165;52.388;4.928;2023-04-01T17:15:45;10.10;99.90
14172;DHT22;7165;52.388;4.928;2023-04-01T17:18:19;10.10;99.90
14172;DHT22;7165;52.388;4.928;2023-04-01T17:20:52;10.00;99.90
14172;DHT22;7165;52.388;4.928;2023-04-01T17:23:26;10.00;99.90